sensor_id;sensor_type;location;lat;lon;timestamp;pressure;altitude;pressure_sealevel;temperature;humidity
9189;BME280;34313;50.780;6.084;2023-06-24T00:01:59;100357.19;;;17.69;100.00
9189;BME280;34313;50.780;6.084;2023-06-24T00:04:25;100348.06;;;17.61;100.00
9189;BME280;34313;50.780;6.084;2023-06-24T00:06:50;100340.28;;;17.57;100.00
9189;BME280;34313;50.780;6.084;2023-06-24T00:09:17;100355.09;;;17.62;100.00
9189;BME280;34313;50.780;6.084;2023-06-24T00:11:43;100345.84;;;17.54;100.00
9189;BME280;34313;50.780;6.084;2023-06-24T00:14:08;100349.66;;;17.63;100.00
9189;BME280;34313;50.780;6.084;2023-06-24T00:16:33;100346.34;;;17.60;100.00
9189;BME280;34313;50.780;6.084;2023-06-24T00:18:58;100349.66;;;17.63;100.00
9189;BME280;34313;50.780;6.084;2023-06-24T00:21:25;100353.03;;;17.65;100.00
9189;BME280;34313;50.780;6.084;2023-06-24T00:23:58;100337.00;;;17.54;100.00
9189;BME280;34313;50.780;6.084;2023-06-24T00:26:27;100346.56;;;17.56;100.00
9189;BME280;34313;50.780;6.084;2023-06-24T00:28:52;100329.44;;;17.48;100.00
9189;BME280;34313;50.780;6.084;2023-06-24T00:31:19;100338.94;;;17.52;100.00
9189;BME280;34313;50.780;6.084;2023-06-24T00:33:44;100341.38;;;17.55;100.00
9189;BME280;34313;50.780;6.084;2023-06-24T00:36:10;100346.56;;;17.56;100.00
9189;BME280;34313;50.780;6.084;2023-06-24T00:38:37;100335.53;;;17.50;100.00
9189;BME280;34313;50.780;6.084;2023-06-24T00:41:03;100330.44;;;17.47;100.00
9189;BME280;34313;50.780;6.084;2023-06-24T00:43:29;100337.69;;;17.45;100.00
9189;BME280;34313;50.780;6.084;2023-06-24T00:45:57;100349.72;;;17.50;100.00
9189;BME280;34313;50.780;6.084;2023-06-24T00:48:23;100346.94;;;17.52;100.00
9189;BME280;34313;50.780;6.084;2023-06-24T00:50:49;100343.88;;;17.45;100.00
9189;BME280;34313;50.780;6.084;2023-06-24T00:53:19;100339.84;;;17.39;100.00
9189;BME280;34313;50.780;6.084;2023-06-24T00:55:46;100349.53;;;17.41;100.00
9189;BME280;34313;50.780;6.084;2023-06-24T00:58:13;100348.91;;;17.37;100.00
9189;BME280;34313;50.780;6.084;2023-06-24T01:00:45;100357.75;;;17.37;100.00
9189;BME280;34313;50.780;6.084;2023-06-24T01:03:11;100340.06;;;17.36;100.00
9189;BME280;34313;50.780;6.084;2023-06-24T01:05:40;100337.72;;;17.32;100.00
9189;BME280;34313;50.780;6.084;2023-06-24T01:08:07;100351.81;;;17.34;100.00
9189;BME280;34313;50.780;6.084;2023-06-24T01:10:32;100353.72;;;17.32;100.00
9189;BME280;34313;50.780;6.084;2023-06-24T01:13:01;100345.66;;;17.20;100.00
9189;BME280;34313;50.780;6.084;2023-06-24T01:15:26;100344.94;;;17.18;100.00
9189;BME280;34313;50.780;6.084;2023-06-24T01:18:02;100345.84;;;17.30;100.00
9189;BME280;34313;50.780;6.084;2023-06-24T01:20:47;100339.03;;;17.26;100.00
9189;BME280;34313;50.780;6.084;2023-06-24T01:36:38;100351.88;;;17.08;100.00
9189;BME280;34313;50.780;6.084;2023-06-24T01:39:08;100364.25;;;17.09;100.00
9189;BME280;34313;50.780;6.084;2023-06-24T01:41:41;100350.28;;;17.06;100.00
9189;BME280;34313;50.780;6.084;2023-06-24T01:44:13;100356.38;;;17.08;100.00
9189;BME280;34313;50.780;6.084;2023-06-24T01:46:42;100346.88;;;17.04;100.00
9189;BME280;34313;50.780;6.084;2023-06-24T01:49:12;100354.44;;;17.10;100.00
9189;BME280;34313;50.780;6.084;2023-06-24T01:51:39;100360.81;;;17.07;100.00
9189;BME280;34313;50.780;6.084;2023-06-24T01:54:11;100361.91;;;17.05;100.00
9189;BME280;34313;50.780;6.084;2023-06-24T01:56:39;100350.41;;;17.04;100.00
9189;BME280;34313;50.780;6.084;2023-06-24T01:59:08;100348.47;;;17.06;100.00
9189;BME280;34313;50.780;6.084;2023-06-24T02:01:37;100351.47;;;17.01;100.00
9189;BME280;34313;50.780;6.084;2023-06-24T02:04:08;100344.66;;;16.97;100.00
9189;BME280;34313;50.780;6.084;2023-06-24T02:06:36;100351.03;;;16.95;100.00
9189;BME280;34313;50.780;6.084;2023-06-24T02:09:04;100338.59;;;16.95;100.00
9189;BME280;34313;50.780;6.084;2023-06-24T02:11:31;100344.31;;;17.02;100.00
9189;BME280;34313;50.780;6.084;2023-06-24T02:13:59;100335.06;;;16.95;100.00
9189;BME280;34313;50.780;6.084;2023-06-24T02:16:26;100332.28;;;16.96;100.00
9189;BME280;34313;50.780;6.084;2023-06-24T02:18:53;100345.91;;;17.05;100.00
9189;BME280;34313;50.780;6.084;2023-06-24T02:21:20;100316.44;;;16.82;100.00
9189;BME280;34313;50.780;6.084;2023-06-24T02:23:49;100347.13;;;17.00;100.00
9189;BME280;34313;50.780;6.084;2023-06-24T02:26:16;100345.41;;;16.99;100.00
9189;BME280;34313;50.780;6.084;2023-06-24T02:28:44;100345.63;;;16.96;100.00
9189;BME280;34313;50.780;6.084;2023-06-24T02:31:12;100355.31;;;16.97;100.00
9189;BME280;34313;50.780;6.084;2023-06-24T02:33:38;100360.44;;;17.00;100.00
9189;BME280;34313;50.780;6.084;2023-06-24T02:36:04;100355.53;;;16.94;100.00
9189;BME280;34313;50.780;6.084;2023-06-24T02:38:30;100358.72;;;16.99;100.00
9189;BME280;34313;50.780;6.084;2023-06-24T02:40:55;100353.94;;;16.92;100.00
9189;BME280;34313;50.780;6.084;2023-06-24T02:43:21;100361.16;;;16.90;100.00
9189;BME280;34313;50.780;6.084;2023-06-24T02:45:47;100360.63;;;16.85;100.00
9189;BME280;34313;50.780;6.084;2023-06-24T02:48:17;100347.13;;;16.75;100.00
9189;BME280;34313;50.780;6.084;2023-06-24T02:50:44;100358.50;;;16.77;100.00
9189;BME280;34313;50.780;6.084;2023-06-24T02:53:11;100359.13;;;16.80;100.00
9189;BME280;34313;50.780;6.084;2023-06-24T02:55:38;100353.38;;;16.74;100.00
9189;BME280;34313;50.780;6.084;2023-06-24T02:58:05;100357.66;;;16.76;100.00
9189;BME280;34313;50.780;6.084;2023-06-24T03:00:36;100357.66;;;16.76;100.00
9189;BME280;34313;50.780;6.084;2023-06-24T03:03:04;100351.59;;;16.74;100.00
9189;BME280;34313;50.780;6.084;2023-06-24T03:05:31;100357.03;;;16.73;100.00
9189;BME280;34313;50.780;6.084;2023-06-24T03:07:58;100358.53;;;16.64;100.00
9189;BME280;34313;50.780;6.084;2023-06-24T03:10:27;100354.34;;;16.60;100.00
9189;BME280;34313;50.780;6.084;2023-06-24T03:12:53;100366.16;;;16.69;100.00
9189;BME280;34313;50.780;6.084;2023-06-24T03:15:21;100350.00;;;16.59;100.00
9189;BME280;34313;50.780;6.084;2023-06-24T03:17:49;100365.41;;;16.67;100.00
9189;BME280;34313;50.780;6.084;2023-06-24T03:20:15;100379.38;;;16.70;100.00
9189;BME280;34313;50.780;6.084;2023-06-24T03:22:41;100361.19;;;16.64;100.00
9189;BME280;34313;50.780;6.084;2023-06-24T03:25:06;100379.25;;;16.72;100.00
9189;BME280;34313;50.780;6.084;2023-06-24T03:27:32;100369.16;;;16.64;100.00
9189;BME280;34313;50.780;6.084;2023-06-24T03:29:59;100379.38;;;16.70;100.00
9189;BME280;34313;50.780;6.084;2023-06-24T03:32:24;100384.16;;;16.78;100.00
9189;BME280;34313;50.780;6.084;2023-06-24T03:34:49;100389.41;;;16.79;100.00
9189;BME280;34313;50.780;6.084;2023-06-24T03:37:14;100380.53;;;16.79;100.00
9189;BME280;34313;50.780;6.084;2023-06-24T03:39:41;100368.19;;;16.78;100.00
9189;BME280;34313;50.780;6.084;2023-06-24T03:42:06;100380.25;;;16.84;100.00
9189;BME280;34313;50.780;6.084;2023-06-24T03:44:31;100384.09;;;16.92;100.00
9189;BME280;34313;50.780;6.084;2023-06-24T03:46:57;100377.78;;;16.93;100.00
9189;BME280;34313;50.780;6.084;2023-06-24T03:49:22;100377.34;;;16.99;100.00
9189;BME280;34313;50.780;6.084;2023-06-24T03:51:47;100395.34;;;17.09;100.00
9189;BME280;34313;50.780;6.084;2023-06-24T03:54:13;100372.34;;;17.08;100.00
9189;BME280;34313;50.780;6.084;2023-06-24T03:56:39;100394.97;;;17.26;100.00
9189;BME280;34313;50.780;6.084;2023-06-24T03:59:05;100390.91;;;17.33;100.00
9189;BME280;34313;50.780;6.084;2023-06-24T04:01:33;100402.28;;;17.48;100.00
9189;BME280;34313;50.780;6.084;2023-06-24T04:04:02;100406.09;;;17.57;100.00
9189;BME280;34313;50.780;6.084;2023-06-24T04:06:30;100394.31;;;17.72;100.00
9189;BME280;34313;50.780;6.084;2023-06-24T04:08:58;100388.81;;;17.74;100.00
9189;BME280;34313;50.780;6.084;2023-06-24T04:11:29;100374.53;;;17.75;100.00
9189;BME280;34313;50.780;6.084;2023-06-24T04:14:10;100412.91;;;18.09;100.00
9189;BME280;34313;50.780;6.084;2023-06-24T04:16:39;100413.91;;;18.20;100.00
9189;BME280;34313;50.780;6.084;2023-06-24T04:19:10;100392.44;;;18.21;100.00
9189;BME280;34313;50.780;6.084;2023-06-24T04:21:41;100388.97;;;18.32;100.00
9189;BME280;34313;50.780;6.084;2023-06-24T04:24:06;100397.59;;;18.47;100.00
9189;BME280;34313;50.780;6.084;2023-06-24T04:26:32;100410.38;;;18.66;100.00
9189;BME280;34313;50.780;6.084;2023-06-24T04:28:57;100407.00;;;18.75;100.00
9189;BME280;34313;50.780;6.084;2023-06-24T04:31:26;100396.72;;;18.82;98.97
9189;BME280;34313;50.780;6.084;2023-06-24T04:33:53;100420.78;;;19.04;97.91
9189;BME280;34313;50.780;6.084;2023-06-24T04:36:21;100416.53;;;19.13;96.68
9189;BME280;34313;50.780;6.084;2023-06-24T04:38:46;100404.84;;;19.25;94.56
9189;BME280;34313;50.780;6.084;2023-06-24T04:41:12;100418.53;;;19.43;93.54
9189;BME280;34313;50.780;6.084;2023-06-24T04:43:38;100407.22;;;19.51;92.89
9189;BME280;34313;50.780;6.084;2023-06-24T04:46:03;100414.72;;;19.69;91.96
9189;BME280;34313;50.780;6.084;2023-06-24T04:48:29;100409.00;;;19.85;91.09
9189;BME280;34313;50.780;6.084;2023-06-24T04:50:54;100405.31;;;19.97;89.36
9189;BME280;34313;50.780;6.084;2023-06-24T04:53:20;100409.69;;;20.19;87.91
9189;BME280;34313;50.780;6.084;2023-06-24T04:55:46;100421.31;;;20.50;86.25
9189;BME280;34313;50.780;6.084;2023-06-24T04:58:12;100414.03;;;21.04;84.43
9189;BME280;34313;50.780;6.084;2023-06-24T05:00:37;100420.88;;;23.13;76.57
9189;BME280;34313;50.780;6.084;2023-06-24T05:03:03;100402.03;;;26.03;63.59
9189;BME280;34313;50.780;6.084;2023-06-24T05:05:30;100420.78;;;28.88;53.49
9189;BME280;34313;50.780;6.084;2023-06-24T05:08:04;100396.50;;;31.17;45.80
9189;BME280;34313;50.780;6.084;2023-06-24T05:10:38;100422.00;;;33.38;39.78
9189;BME280;34313;50.780;6.084;2023-06-24T05:13:08;100413.78;;;35.02;34.96
9189;BME280;34313;50.780;6.084;2023-06-24T05:15:48;100384.97;;;36.33;32.18
9189;BME280;34313;50.780;6.084;2023-06-24T05:18:13;100385.47;;;37.30;29.68
9189;BME280;34313;50.780;6.084;2023-06-24T05:20:51;100393.84;;;38.65;28.29
9189;BME280;34313;50.780;6.084;2023-06-24T05:23:28;100387.59;;;39.36;27.20
9189;BME280;34313;50.780;6.084;2023-06-24T05:26:01;100386.81;;;40.28;26.00
9189;BME280;34313;50.780;6.084;2023-06-24T05:28:44;100373.75;;;41.13;24.46
9189;BME280;34313;50.780;6.084;2023-06-24T05:31:18;100393.53;;;42.04;22.96
9189;BME280;34313;50.780;6.084;2023-06-24T05:33:47;100374.16;;;42.50;22.56
9189;BME280;34313;50.780;6.084;2023-06-24T05:36:15;100380.59;;;43.06;21.49
9189;BME280;34313;50.780;6.084;2023-06-24T05:38:53;100351.03;;;43.36;20.91
9189;BME280;34313;50.780;6.084;2023-06-24T05:41:19;100375.56;;;43.63;19.89
9189;BME280;34313;50.780;6.084;2023-06-24T05:43:48;100371.16;;;43.96;19.82
9189;BME280;34313;50.780;6.084;2023-06-24T05:46:16;100381.81;;;44.43;19.17
9189;BME280;34313;50.780;6.084;2023-06-24T05:48:42;100378.44;;;44.99;18.70
9189;BME280;34313;50.780;6.084;2023-06-24T05:51:08;100369.25;;;45.18;18.22
9189;BME280;34313;50.780;6.084;2023-06-24T05:53:34;100383.88;;;45.99;17.93
9189;BME280;34313;50.780;6.084;2023-06-24T05:56:02;100383.13;;;46.40;17.41
9189;BME280;34313;50.780;6.084;2023-06-24T05:58:27;100382.78;;;46.61;17.03
9189;BME280;34313;50.780;6.084;2023-06-24T06:01:01;100361.38;;;46.56;16.73
9189;BME280;34313;50.780;6.084;2023-06-24T06:03:38;100366.38;;;46.13;16.90
9189;BME280;34313;50.780;6.084;2023-06-24T06:06:03;100380.34;;;46.27;17.16
9189;BME280;34313;50.780;6.084;2023-06-24T06:08:29;100386.06;;;46.77;16.32
9189;BME280;34313;50.780;6.084;2023-06-24T06:10:57;100385.34;;;46.99;16.61
9189;BME280;34313;50.780;6.084;2023-06-24T06:13:25;100365.59;;;47.68;15.87
9189;BME280;34313;50.780;6.084;2023-06-24T06:15:50;100365.47;;;48.27;14.99
9189;BME280;34313;50.780;6.084;2023-06-24T06:18:19;100360.69;;;48.59;14.88
9189;BME280;34313;50.780;6.084;2023-06-24T06:20:45;100366.03;;;48.87;14.25
9189;BME280;34313;50.780;6.084;2023-06-24T06:23:21;100372.78;;;49.03;14.33
9189;BME280;34313;50.780;6.084;2023-06-24T06:25:47;100366.25;;;49.26;14.08
9189;BME280;34313;50.780;6.084;2023-06-24T06:28:13;100364.25;;;47.43;15.29
9189;BME280;34313;50.780;6.084;2023-06-24T06:30:42;100374.47;;;45.95;16.26
9189;BME280;34313;50.780;6.084;2023-06-24T06:33:07;100373.28;;;43.75;18.49
9189;BME280;34313;50.780;6.084;2023-06-24T06:35:36;100360.53;;;43.24;18.70
9189;BME280;34313;50.780;6.084;2023-06-24T06:38:02;100365.84;;;44.00;18.57
9189;BME280;34313;50.780;6.084;2023-06-24T06:40:27;100384.06;;;45.89;16.79
9189;BME280;34313;50.780;6.084;2023-06-24T06:43:02;100386.44;;;47.26;15.74
9189;BME280;34313;50.780;6.084;2023-06-24T06:45:49;100368.38;;;48.45;14.04
9189;BME280;34313;50.780;6.084;2023-06-24T06:48:22;100375.16;;;49.28;13.45
9189;BME280;34313;50.780;6.084;2023-06-24T06:50:47;100397.63;;;50.27;13.53
9189;BME280;34313;50.780;6.084;2023-06-24T06:53:20;100378.78;;;50.37;13.06
9189;BME280;34313;50.780;6.084;2023-06-24T06:55:51;100370.59;;;50.23;12.88
9189;BME280;34313;50.780;6.084;2023-06-24T06:58:16;100386.25;;;50.24;12.84
9189;BME280;34313;50.780;6.084;2023-06-24T07:00:45;100379.16;;;50.95;12.69
9189;BME280;34313;50.780;6.084;2023-06-24T07:03:17;100388.19;;;51.42;12.46
9189;BME280;34313;50.780;6.084;2023-06-24T07:05:42;100375.06;;;51.89;12.00
9189;BME280;34313;50.780;6.084;2023-06-24T07:08:13;100382.41;;;52.27;11.84
9189;BME280;34313;50.780;6.084;2023-06-24T07:10:39;100392.50;;;52.65;11.79
9189;BME280;34313;50.780;6.084;2023-06-24T07:13:05;100389.03;;;51.01;12.38
9189;BME280;34313;50.780;6.084;2023-06-24T07:15:30;100383.66;;;52.17;12.02
9189;BME280;34313;50.780;6.084;2023-06-24T07:17:58;100385.47;;;52.46;11.83
9189;BME280;34313;50.780;6.084;2023-06-24T07:20:24;100385.31;;;53.04;11.46
9189;BME280;34313;50.780;6.084;2023-06-24T07:22:49;100377.59;;;53.70;10.92
9189;BME280;34313;50.780;6.084;2023-06-24T07:25:15;100385.13;;;53.38;11.05
9189;BME280;34313;50.780;6.084;2023-06-24T07:27:43;100374.81;;;52.52;11.64
9189;BME280;34313;50.780;6.084;2023-06-24T07:30:09;100378.38;;;53.42;10.85
9189;BME280;34313;50.780;6.084;2023-06-24T07:32:35;100376.09;;;54.04;10.58
9189;BME280;34313;50.780;6.084;2023-06-24T07:35:00;100381.38;;;53.90;10.77
9189;BME280;34313;50.780;6.084;2023-06-24T07:37:25;100371.91;;;54.14;10.57
9189;BME280;34313;50.780;6.084;2023-06-24T07:39:51;100385.56;;;54.60;10.23
9189;BME280;34313;50.780;6.084;2023-06-24T07:42:19;100374.75;;;54.30;10.44
9189;BME280;34313;50.780;6.084;2023-06-24T07:44:45;100370.81;;;54.19;10.44
9189;BME280;34313;50.780;6.084;2023-06-24T07:47:11;100384.66;;;54.08;10.59
9189;BME280;34313;50.780;6.084;2023-06-24T07:49:36;100387.66;;;54.31;10.44
9189;BME280;34313;50.780;6.084;2023-06-24T07:52:05;100389.97;;;55.12;9.84
9189;BME280;34313;50.780;6.084;2023-06-24T07:54:31;100384.78;;;55.14;9.94
9189;BME280;34313;50.780;6.084;2023-06-24T07:56:56;100380.63;;;55.28;9.73
9189;BME280;34313;50.780;6.084;2023-06-24T07:59:22;100373.63;;;54.67;10.42
9189;BME280;34313;50.780;6.084;2023-06-24T08:01:50;100369.81;;;55.14;10.00
9189;BME280;34313;50.780;6.084;2023-06-24T08:04:56;100357.97;;;53.90;10.76
9189;BME280;34313;50.780;6.084;2023-06-24T08:07:40;100354.66;;;53.27;10.73
9189;BME280;34313;50.780;6.084;2023-06-24T08:10:36;100353.00;;;54.15;10.11
9189;BME280;34313;50.780;6.084;2023-06-24T08:13:07;100370.56;;;54.08;10.49
9189;BME280;34313;50.780;6.084;2023-06-24T08:15:47;100363.75;;;52.10;11.66
9189;BME280;34313;50.780;6.084;2023-06-24T08:18:24;100337.31;;;53.13;10.63
9189;BME280;34313;50.780;6.084;2023-06-24T08:21:01;100352.81;;;53.07;11.07
9189;BME280;34313;50.780;6.084;2023-06-24T08:23:33;100332.13;;;53.88;10.21
9189;BME280;34313;50.780;6.084;2023-06-24T08:25:58;100362.47;;;54.07;10.12
9189;BME280;34313;50.780;6.084;2023-06-24T08:28:23;100357.72;;;53.95;10.45
9189;BME280;34313;50.780;6.084;2023-06-24T08:30:49;100361.91;;;54.33;9.85
9189;BME280;34313;50.780;6.084;2023-06-24T08:33:14;100368.69;;;54.80;9.41
9189;BME280;34313;50.780;6.084;2023-06-24T08:35:39;100362.16;;;54.59;9.78
9189;BME280;34313;50.780;6.084;2023-06-24T08:38:05;100366.31;;;54.82;9.68
9189;BME280;34313;50.780;6.084;2023-06-24T08:40:30;100366.88;;;54.71;9.69
9189;BME280;34313;50.780;6.084;2023-06-24T08:42:55;100369.03;;;54.78;9.31
9189;BME280;34313;50.780;6.084;2023-06-24T08:45:28;100359.09;;;54.01;9.76
9189;BME280;34313;50.780;6.084;2023-06-24T08:47:55;100349.03;;;53.88;9.91
9189;BME280;34313;50.780;6.084;2023-06-24T08:50:22;100351.59;;;53.48;10.07
9189;BME280;34313;50.780;6.084;2023-06-24T08:52:51;100360.16;;;53.52;10.01
9189;BME280;34313;50.780;6.084;2023-06-24T08:55:22;100352.88;;;52.45;10.36
9189;BME280;34313;50.780;6.084;2023-06-24T08:57:48;100352.50;;;52.22;10.71
9189;BME280;34313;50.780;6.084;2023-06-24T09:00:14;100351.75;;;51.55;10.64
9189;BME280;34313;50.780;6.084;2023-06-24T09:02:39;100353.50;;;50.75;11.34
9189;BME280;34313;50.780;6.084;2023-06-24T09:05:06;100349.53;;;50.46;11.52
9189;BME280;34313;50.780;6.084;2023-06-24T09:07:31;100351.41;;;49.69;11.12
9189;BME280;34313;50.780;6.084;2023-06-24T09:09:56;100342.78;;;48.69;11.42
9189;BME280;34313;50.780;6.084;2023-06-24T09:12:24;100346.53;;;47.48;12.87
9189;BME280;34313;50.780;6.084;2023-06-24T09:14:50;100345.47;;;47.80;12.70
9189;BME280;34313;50.780;6.084;2023-06-24T09:17:17;100345.91;;;47.28;12.67
9189;BME280;34313;50.780;6.084;2023-06-24T09:19:42;100352.34;;;46.18;13.43
9189;BME280;34313;50.780;6.084;2023-06-24T09:22:09;100341.22;;;45.52;14.15
9189;BME280;34313;50.780;6.084;2023-06-24T09:24:42;100343.03;;;46.09;14.01
9189;BME280;34313;50.780;6.084;2023-06-24T09:27:11;100336.41;;;45.91;13.85
9189;BME280;34313;50.780;6.084;2023-06-24T09:29:37;100339.84;;;45.30;14.10
9189;BME280;34313;50.780;6.084;2023-06-24T09:32:05;100321.00;;;45.60;13.78
9189;BME280;34313;50.780;6.084;2023-06-24T09:34:31;100322.59;;;45.66;13.55
9189;BME280;34313;50.780;6.084;2023-06-24T09:36:58;100324.38;;;45.24;14.09
9189;BME280;34313;50.780;6.084;2023-06-24T09:39:25;100333.28;;;44.83;14.77
9189;BME280;34313;50.780;6.084;2023-06-24T09:41:54;100318.50;;;44.15;14.55
9189;BME280;34313;50.780;6.084;2023-06-24T09:44:20;100322.69;;;43.44;14.48
9189;BME280;34313;50.780;6.084;2023-06-24T09:46:45;100315.75;;;43.02;15.04
9189;BME280;34313;50.780;6.084;2023-06-24T09:49:11;100314.00;;;42.51;14.84
9189;BME280;34313;50.780;6.084;2023-06-24T09:51:39;100313.56;;;41.98;15.38
9189;BME280;34313;50.780;6.084;2023-06-24T09:54:09;100308.47;;;41.07;15.26
9189;BME280;34313;50.780;6.084;2023-06-24T09:56:40;100302.63;;;40.93;16.10
9189;BME280;34313;50.780;6.084;2023-06-24T09:59:15;100279.13;;;39.90;16.90
9189;BME280;34313;50.780;6.084;2023-06-24T10:01:44;100298.47;;;39.58;17.91
9189;BME280;34313;50.780;6.084;2023-06-24T10:04:19;100296.53;;;38.82;18.75
9189;BME280;34313;50.780;6.084;2023-06-24T10:07:11;100273.72;;;38.03;18.59
9189;BME280;34313;50.780;6.084;2023-06-24T10:12:20;100286.16;;;37.43;18.86
9189;BME280;34313;50.780;6.084;2023-06-24T10:14:52;100297.69;;;36.70;18.75
9189;BME280;34313;50.780;6.084;2023-06-24T10:17:20;100288.75;;;36.51;19.15
9189;BME280;34313;50.780;6.084;2023-06-24T10:19:45;100275.63;;;36.06;19.22
9189;BME280;34313;50.780;6.084;2023-06-24T10:22:11;100264.56;;;35.77;20.18
9189;BME280;34313;50.780;6.084;2023-06-24T10:24:39;100267.47;;;35.52;20.82
9189;BME280;34313;50.780;6.084;2023-06-24T10:27:09;100282.69;;;35.36;19.94
9189;BME280;34313;50.780;6.084;2023-06-24T10:29:35;100253.97;;;34.78;20.58
9189;BME280;34313;50.780;6.084;2023-06-24T10:32:08;100238.56;;;34.28;21.70
9189;BME280;34313;50.780;6.084;2023-06-24T10:39:56;100274.38;;;33.77;22.70
9189;BME280;34313;50.780;6.084;2023-06-24T10:42:40;100256.28;;;33.50;23.23
9189;BME280;34313;50.780;6.084;2023-06-24T10:47:39;100266.25;;;33.00;23.82
9189;BME280;34313;50.780;6.084;2023-06-24T10:50:06;100266.94;;;31.90;25.25
9189;BME280;34313;50.780;6.084;2023-06-24T10:52:32;100251.22;;;31.72;26.15
9189;BME280;34313;50.780;6.084;2023-06-24T10:54:58;100252.69;;;31.54;25.26
9189;BME280;34313;50.780;6.084;2023-06-24T10:57:26;100262.28;;;31.37;24.28
9189;BME280;34313;50.780;6.084;2023-06-24T10:59:53;100253.44;;;31.21;22.04
9189;BME280;34313;50.780;6.084;2023-06-24T11:02:20;100247.72;;;31.03;22.39
9189;BME280;34313;50.780;6.084;2023-06-24T11:04:50;100254.97;;;30.76;23.39
9189;BME280;34313;50.780;6.084;2023-06-24T11:07:20;100258.19;;;30.51;23.27
9189;BME280;34313;50.780;6.084;2023-06-24T11:12:15;100252.81;;;29.94;24.77
9189;BME280;34313;50.780;6.084;2023-06-24T11:14:40;100256.44;;;29.80;25.43
9189;BME280;34313;50.780;6.084;2023-06-24T11:17:06;100240.59;;;29.84;26.63
9189;BME280;34313;50.780;6.084;2023-06-24T11:19:31;100243.13;;;29.64;27.37
9189;BME280;34313;50.780;6.084;2023-06-24T11:22:00;100236.16;;;29.33;27.37
9189;BME280;34313;50.780;6.084;2023-06-24T11:24:29;100233.41;;;29.26;27.75
9189;BME280;34313;50.780;6.084;2023-06-24T11:26:55;100233.41;;;29.26;27.42
9189;BME280;34313;50.780;6.084;2023-06-24T11:29:21;100230.25;;;29.08;26.75
9189;BME280;34313;50.780;6.084;2023-06-24T11:31:48;100231.00;;;29.01;27.28
9189;BME280;34313;50.780;6.084;2023-06-24T11:34:14;100238.50;;;28.63;27.67
9189;BME280;34313;50.780;6.084;2023-06-24T11:36:39;100241.09;;;28.41;27.65
9189;BME280;34313;50.780;6.084;2023-06-24T11:39:04;100225.50;;;27.99;27.22
9189;BME280;34313;50.780;6.084;2023-06-24T11:41:32;100227.84;;;28.17;26.13
9189;BME280;34313;50.780;6.084;2023-06-24T11:43:57;100225.69;;;28.27;25.32
9189;BME280;34313;50.780;6.084;2023-06-24T11:46:27;100239.63;;;28.39;25.51
9189;BME280;34313;50.780;6.084;2023-06-24T11:49:03;100227.91;;;28.38;24.57
9189;BME280;34313;50.780;6.084;2023-06-24T11:51:28;100226.16;;;28.45;24.87
9189;BME280;34313;50.780;6.084;2023-06-24T11:53:58;100217.53;;;28.42;25.13
9189;BME280;34313;50.780;6.084;2023-06-24T11:56:53;100228.19;;;28.43;25.25
9189;BME280;34313;50.780;6.084;2023-06-24T11:59:23;100227.44;;;28.50;28.00
9189;BME280;34313;50.780;6.084;2023-06-24T12:01:54;100218.56;;;28.56;29.64
9189;BME280;34313;50.780;6.084;2023-06-24T12:04:20;100223.44;;;28.45;28.59
9189;BME280;34313;50.780;6.084;2023-06-24T12:06:45;100217.00;;;28.61;26.17
9189;BME280;34313;50.780;6.084;2023-06-24T12:09:11;100213.59;;;28.59;24.54
9189;BME280;34313;50.780;6.084;2023-06-24T12:11:37;100224.66;;;28.28;29.15
9189;BME280;34313;50.780;6.084;2023-06-24T12:14:02;100210.16;;;28.21;29.23
9189;BME280;34313;50.780;6.084;2023-06-24T12:16:29;100203.34;;;28.10;30.46
9189;BME280;34313;50.780;6.084;2023-06-24T12:18:54;100214.66;;;28.28;30.87
9189;BME280;34313;50.780;6.084;2023-06-24T12:21:20;100217.66;;;28.34;30.20
9189;BME280;34313;50.780;6.084;2023-06-24T12:23:45;100209.44;;;28.27;30.79
9189;BME280;34313;50.780;6.084;2023-06-24T12:26:11;100207.00;;;28.32;30.92
9189;BME280;34313;50.780;6.084;2023-06-24T12:28:36;100206.97;;;28.17;30.17
9189;BME280;34313;50.780;6.084;2023-06-24T12:31:02;100206.72;;;28.27;30.80
9189;BME280;34313;50.780;6.084;2023-06-24T12:33:28;100197.72;;;28.41;29.95
9189;BME280;34313;50.780;6.084;2023-06-24T12:35:53;100199.41;;;28.27;29.57
9189;BME280;34313;50.780;6.084;2023-06-24T12:38:18;100202.69;;;28.38;29.95
9189;BME280;34313;50.780;6.084;2023-06-24T12:40:43;100202.13;;;28.42;29.65
9189;BME280;34313;50.780;6.084;2023-06-24T12:43:10;100196.34;;;28.45;30.01
9189;BME280;34313;50.780;6.084;2023-06-24T12:45:35;100194.44;;;28.61;29.42
9189;BME280;34313;50.780;6.084;2023-06-24T12:48:01;100195.16;;;28.70;29.83
9189;BME280;34313;50.780;6.084;2023-06-24T12:50:27;100189.13;;;28.53;29.65
9189;BME280;34313;50.780;6.084;2023-06-24T12:52:53;100187.53;;;28.58;29.53
9189;BME280;34313;50.780;6.084;2023-06-24T12:55:18;100194.47;;;28.31;29.87
9189;BME280;34313;50.780;6.084;2023-06-24T12:57:43;100194.81;;;27.83;29.49
9189;BME280;34313;50.780;6.084;2023-06-24T13:00:09;100186.91;;;27.97;29.87
9189;BME280;34313;50.780;6.084;2023-06-24T13:02:35;100190.16;;;28.22;29.57
9189;BME280;34313;50.780;6.084;2023-06-24T13:05:00;100189.50;;;28.35;28.48
9189;BME280;34313;50.780;6.084;2023-06-24T13:07:26;100184.34;;;28.40;28.78
9189;BME280;34313;50.780;6.084;2023-06-24T13:09:51;100188.38;;;28.59;28.48
9189;BME280;34313;50.780;6.084;2023-06-24T13:12:16;100187.34;;;28.60;28.28
9189;BME280;34313;50.780;6.084;2023-06-24T13:14:42;100185.69;;;28.44;28.04
9189;BME280;34313;50.780;6.084;2023-06-24T13:17:07;100187.66;;;28.35;28.13
9189;BME280;34313;50.780;6.084;2023-06-24T13:19:32;100176.31;;;28.46;28.35
9189;BME280;34313;50.780;6.084;2023-06-24T13:21:58;100180.84;;;28.54;29.12
9189;BME280;34313;50.780;6.084;2023-06-24T13:24:24;100172.19;;;28.65;28.38
9189;BME280;34313;50.780;6.084;2023-06-24T13:26:50;100176.25;;;28.55;29.01
9189;BME280;34313;50.780;6.084;2023-06-24T13:29:16;100179.06;;;28.32;29.23